Time,TemperatureF,DewpointF,PressureIn,WindDirection,WindDirectionDegrees,WindSpeedMPH,WindSpeedGustMPH,Humidity,HourlyPrecipIn,Conditions,Clouds,dailyrainin,SoftwareType,DateUTC
2013-04-14 00:00:00,42.8,37.4,29.89,NW,325,0.0,5.0,81,0.00,,,-99.99,VWS V12.06,2013-04-14 04:00:00,
2013-04-14 00:14:00,42.6,36.9,29.89,North,350,0.0,3.0,80,0.00,,,-99.99,VWS V12.06,2013-04-14 04:14:00,
2013-04-14 00:30:00,42.5,36.8,29.89,NNW,347,0.0,3.0,80,0.00,,,-99.99,VWS V12.06,2013-04-14 04:30:00,
2013-04-14 00:45:00,42.2,36.5,29.87,NNW,347,0.0,2.0,80,0.00,,,-99.99,VWS V12.06,2013-04-14 04:45:00,
2013-04-14 01:00:00,41.8,36.1,29.88,NNW,347,0.0,0.0,80,0.00,,,-99.99,VWS V12.06,2013-04-14 05:00:00,
2013-04-14 01:15:00,41.1,35.7,29.87,NNW,347,0.0,0.0,81,0.00,,,-99.99,VWS V12.06,2013-04-14 05:15:00,
2013-04-14 01:30:00,40.1,35.4,29.87,NNW,347,0.0,0.0,83,0.00,,,-99.99,VWS V12.06,2013-04-14 05:30:00,
2013-04-14 01:45:00,39.2,35.1,29.87,NNW,347,0.0,0.0,85,0.00,,,-99.99,VWS V12.06,2013-04-14 05:45:00,
2013-04-14 02:00:00,38.2,34.4,29.87,NNW,347,0.0,0.0,86,0.00,,,-99.99,VWS V12.06,2013-04-14 06:00:00,
2013-04-14 02:15:00,37.5,34.0,29.88,NNW,347,0.0,0.0,87,0.00,,,-99.99,VWS V12.06,2013-04-14 06:15:00,
2013-04-14 02:30:00,37.2,34.3,29.88,NNW,347,0.0,0.0,89,0.00,,,-99.99,VWS V12.06,2013-04-14 06:30:00,
2013-04-14 02:44:00,37.2,34.3,29.87,NNW,347,0.0,0.0,89,0.00,,,-99.99,VWS V12.06,2013-04-14 06:44:00,
2013-04-14 03:00:00,38.0,34.8,29.88,NNW,347,0.0,0.0,88,0.00,,,-99.99,VWS V12.06,2013-04-14 07:00:00,
2013-04-14 03:14:00,38.3,34.8,29.87,NNW,347,0.0,0.0,87,0.00,,,-99.99,VWS V12.06,2013-04-14 07:14:00,
2013-04-14 03:30:00,38.2,34.7,29.88,NNW,347,0.0,0.0,87,0.00,,,-99.99,VWS V12.06,2013-04-14 07:30:00,
2013-04-14 03:44:00,38.6,35.1,29.88,NNW,347,0.0,0.0,87,0.00,,,-99.99,VWS V12.06,2013-04-14 07:44:00,
2013-04-14 04:00:00,39.2,35.1,29.88,NNW,347,0.0,0.0,85,0.00,,,-99.99,VWS V12.06,2013-04-14 08:00:00,
2013-04-14 04:14:00,39.5,35.4,29.88,NNW,347,0.0,0.0,85,0.00,,,-99.99,VWS V12.06,2013-04-14 08:14:00,
2013-04-14 04:30:00,39.6,35.5,29.89,NNW,347,0.0,2.0,85,0.00,,,-99.99,VWS V12.06,2013-04-14 08:30:00,
2013-04-14 04:44:00,39.8,35.7,29.89,NNW,347,0.0,0.0,85,0.00,,,-99.99,VWS V12.06,2013-04-14 08:44:00,
2013-04-14 05:00:00,40.3,35.9,29.89,NNW,347,0.0,3.0,84,0.00,,,-99.99,VWS V12.06,2013-04-14 09:00:00,
2013-04-14 05:14:00,40.5,35.8,29.88,NNW,347,0.0,2.0,83,0.00,,,-99.99,VWS V12.06,2013-04-14 09:14:00,
2013-04-14 05:30:00,40.5,35.8,29.89,NNW,347,0.0,2.0,83,0.00,,,-99.99,VWS V12.06,2013-04-14 09:30:00,
2013-04-14 05:45:00,40.2,35.2,29.90,NNW,347,0.0,1.0,82,0.00,,,-99.99,VWS V12.06,2013-04-14 09:45:00,
2013-04-14 06:00:00,39.8,35.1,29.90,NNW,347,0.0,1.0,83,0.00,,,-99.99,VWS V12.06,2013-04-14 10:00:00,
2013-04-14 06:15:00,39.2,34.8,29.90,North,349,0.0,1.0,84,0.00,,,-99.99,VWS V12.06,2013-04-14 10:15:00,
2013-04-14 06:30:00,38.8,34.4,29.90,North,350,1.0,3.0,84,0.00,,,-99.99,VWS V12.06,2013-04-14 10:30:00,
2013-04-14 06:45:00,38.5,34.1,29.91,North,350,0.0,0.0,84,0.00,,,-99.99,VWS V12.06,2013-04-14 10:45:00,
2013-04-14 07:00:00,38.5,33.8,29.91,North,350,0.0,0.0,83,0.00,,,-99.99,VWS V12.06,2013-04-14 11:00:00,
2013-04-14 07:14:00,39.8,34.8,29.92,North,350,0.0,0.0,82,0.00,,,-99.99,VWS V12.06,2013-04-14 11:14:00,
2013-04-14 07:30:00,41.6,34.3,29.91,North,350,0.0,2.0,75,0.00,,,-99.99,VWS V12.06,2013-04-14 11:30:00,
2013-04-14 07:44:00,42.6,33.9,29.91,NNW,335,0.0,3.0,71,0.00,,,-99.99,VWS V12.06,2013-04-14 11:44:00,
2013-04-14 08:00:00,43.6,33.8,29.92,NNW,333,0.0,4.0,68,0.00,,,-99.99,VWS V12.06,2013-04-14 12:00:00,
2013-04-14 08:14:00,43.5,32.9,29.93,NNW,336,3.0,5.0,66,0.00,,,-99.99,VWS V12.06,2013-04-14 12:14:00,
2013-04-14 08:30:00,43.6,32.2,29.92,NNW,340,0.0,3.0,64,0.00,,,-99.99,VWS V12.06,2013-04-14 12:30:00,
2013-04-14 08:44:00,43.6,31.9,29.93,NW,323,2.0,9.0,63,0.00,,,-99.99,VWS V12.06,2013-04-14 12:44:00,
2013-04-14 09:00:00,43.8,31.2,29.93,NNW,339,0.0,6.0,61,0.00,,,-99.99,VWS V12.06,2013-04-14 13:00:00,
2013-04-14 09:14:00,43.3,31.2,29.93,NW,322,1.0,7.0,62,0.00,,,-99.99,VWS V12.06,2013-04-14 13:14:00,
2013-04-14 09:30:00,42.6,30.9,29.94,West,281,1.0,3.0,63,0.00,,,-99.99,VWS V12.06,2013-04-14 13:30:00,
2013-04-14 09:44:00,42.3,31.0,29.94,NW,318,0.0,6.0,64,0.00,,,-99.99,VWS V12.06,2013-04-14 13:44:00,
2013-04-14 10:00:00,42.2,31.7,29.95,NNW,332,4.0,4.0,66,0.00,,,-99.99,VWS V12.06,2013-04-14 14:00:00,
2013-04-14 10:14:00,42.3,31.8,29.95,NNW,335,1.0,3.0,66,0.00,,,-99.99,VWS V12.06,2013-04-14 14:14:00,
2013-04-14 10:30:00,43.2,33.0,29.95,NW,316,0.0,5.0,67,0.00,,,-99.99,VWS V12.06,2013-04-14 14:30:00,
2013-04-14 10:44:00,44.1,32.3,29.96,NW,323,7.0,10.0,63,0.00,,,-99.99,VWS V12.06,2013-04-14 14:44:00,
2013-04-14 11:00:00,44.8,30.5,29.95,NNW,346,2.0,10.0,57,0.00,,,-99.99,VWS V12.06,2013-04-14 15:00:00,
2013-04-14 11:14:00,44.5,29.8,29.96,WNW,291,0.0,3.0,56,0.00,,,-99.99,VWS V12.06,2013-04-14 15:14:00,
2013-04-14 11:30:00,44.5,29.4,29.96,WNW,288,0.0,3.0,55,0.00,,,-99.99,VWS V12.06,2013-04-14 15:30:00,
2013-04-14 11:45:00,44.5,28.5,29.95,NW,315,5.0,7.0,53,0.00,,,-99.99,VWS V12.06,2013-04-14 15:45:00,
2013-04-14 12:00:00,44.6,27.6,29.95,NW,308,2.0,8.0,51,0.00,,,-99.99,VWS V12.06,2013-04-14 16:00:00,
2013-04-14 12:15:00,45.1,28.1,29.95,NW,312,0.0,2.0,51,0.00,,,-99.99,VWS V12.06,2013-04-14 16:15:00,
2013-04-14 12:30:00,45.8,27.7,29.95,WNW,284,1.0,3.0,49,0.00,,,-99.99,VWS V12.06,2013-04-14 16:30:00,
2013-04-14 12:45:00,45.8,26.7,29.95,West,275,2.0,7.0,47,0.00,,,-99.99,VWS V12.06,2013-04-14 16:45:00,
2013-04-14 13:00:00,46.2,27.6,29.95,NNW,347,1.0,2.0,48,0.00,,,-99.99,VWS V12.06,2013-04-14 17:00:00,
2013-04-14 13:15:00,46.2,27.1,29.95,NW,315,2.0,11.0,47,0.00,,,-99.99,VWS V12.06,2013-04-14 17:15:00,
2013-04-14 13:30:00,46.8,25.5,29.95,West,281,0.0,7.0,43,0.00,,,-99.99,VWS V12.06,2013-04-14 17:30:00,
2013-04-14 13:45:00,46.1,26.0,29.96,WNW,295,2.0,3.0,45,0.00,,,-99.99,VWS V12.06,2013-04-14 17:45:00,
2013-04-14 14:00:00,47.3,26.0,29.96,WNW,285,2.0,8.0,43,0.00,,,-99.99,VWS V12.06,2013-04-14 18:00:00,
2013-04-14 14:15:00,47.6,25.7,29.97,NW,315,3.0,7.0,42,0.00,,,-99.99,VWS V12.06,2013-04-14 18:15:00,
2013-04-14 14:30:00,47.9,24.8,29.97,NW,322,7.0,10.0,40,0.00,,,-99.99,VWS V12.06,2013-04-14 18:30:00,
2013-04-14 14:45:00,47.7,24.6,29.98,NW,322,1.0,9.0,40,0.00,,,-99.99,VWS V12.06,2013-04-14 18:45:00,
2013-04-14 15:00:00,47.9,22.9,29.98,WNW,302,5.0,11.0,37,0.00,,,-99.99,VWS V12.06,2013-04-14 19:00:00,
2013-04-14 15:15:00,47.4,24.9,29.97,West,280,6.0,6.0,41,0.00,,,-99.99,VWS V12.06,2013-04-14 19:15:00,
2013-04-14 15:30:00,46.4,25.7,29.98,NW,311,4.0,6.0,44,0.00,,,-99.99,VWS V12.06,2013-04-14 19:30:00,
2013-04-14 15:45:00,46.7,25.4,29.98,NNW,346,5.0,7.0,43,0.00,,,-99.99,VWS V12.06,2013-04-14 19:45:00,
2013-04-14 16:00:00,48.2,25.0,29.99,NNW,344,5.0,11.0,40,0.00,,,-99.99,VWS V12.06,2013-04-14 20:00:00,
2013-04-14 16:15:00,46.7,24.3,29.99,NNW,332,10.0,14.0,41,0.00,,,-99.99,VWS V12.06,2013-04-14 20:15:00,
2013-04-14 16:31:00,46.1,23.7,30.00,WNW,301,3.0,13.0,41,0.00,,,-99.99,VWS V12.06,2013-04-14 20:31:00,
2013-04-14 16:45:00,46.4,24.6,30.00,NW,326,4.0,12.0,42,0.00,,,-99.99,VWS V12.06,2013-04-14 20:45:00,
2013-04-14 17:00:00,45.5,24.3,30.01,North,0,7.0,12.0,43,0.00,,,-99.99,VWS V12.06,2013-04-14 21:00:00,
2013-04-14 17:15:00,45.8,24.0,30.01,West,274,2.0,10.0,42,0.00,,,-99.99,VWS V12.06,2013-04-14 21:15:00,
2013-04-14 17:30:00,45.8,24.0,30.02,NNW,328,1.0,11.0,42,0.00,,,-99.99,VWS V12.06,2013-04-14 21:30:00,
2013-04-14 17:45:00,45.1,24.0,30.03,NNW,328,5.0,13.0,43,0.00,,,-99.99,VWS V12.06,2013-04-14 21:45:00,
2013-04-14 18:00:00,44.8,24.2,30.04,NW,322,0.0,6.0,44,0.00,,,-99.99,VWS V12.06,2013-04-14 22:00:00,
2013-04-14 18:15:00,44.8,23.7,30.04,North,11,3.0,12.0,43,0.00,,,-99.99,VWS V12.06,2013-04-14 22:15:00,
2013-04-14 18:30:00,44.3,23.8,30.05,NNW,330,5.0,11.0,44,0.00,,,-99.99,VWS V12.06,2013-04-14 22:30:00,
2013-04-14 18:45:00,43.9,24.5,30.06,NNW,328,1.0,11.0,46,0.00,,,-99.99,VWS V12.06,2013-04-14 22:45:00,
2013-04-14 19:00:00,43.2,24.4,30.06,NNW,333,11.0,11.0,47,0.00,,,-99.99,VWS V12.06,2013-04-14 23:00:00,
2013-04-14 19:15:00,42.9,24.1,30.07,NW,320,2.0,8.0,47,0.00,,,-99.99,VWS V12.06,2013-04-14 23:15:00,
2013-04-14 19:30:00,42.5,24.7,30.07,NW,322,3.0,6.0,49,0.00,,,-99.99,VWS V12.06,2013-04-14 23:30:00,